sensor_id;sensor_type;location;lat;lon;timestamp;P1;durP1;ratioP1;P2;durP2;ratioP2
22837;SDS011;11585;51.450;-0.240;2023-06-22T00:02:20;9.80;;;5.35;;
22837;SDS011;11585;51.450;-0.240;2023-06-22T00:04:46;12.60;;;5.35;;
22837;SDS011;11585;51.450;-0.240;2023-06-22T00:07:12;11.05;;;5.32;;
22837;SDS011;11585;51.450;-0.240;2023-06-22T00:09:37;11.25;;;5.32;;
22837;SDS011;11585;51.450;-0.240;2023-06-22T00:12:04;8.88;;;5.78;;
22837;SDS011;11585;51.450;-0.240;2023-06-22T00:14:30;8.55;;;5.13;;
22837;SDS011;11585;51.450;-0.240;2023-06-22T00:16:56;8.75;;;5.15;;
22837;SDS011;11585;51.450;-0.240;2023-06-22T00:19:23;13.60;;;5.75;;
22837;SDS011;11585;51.450;-0.240;2023-06-22T00:21:50;9.30;;;5.82;;
22837;SDS011;11585;51.450;-0.240;2023-06-22T00:24:21;13.90;;;5.55;;
22837;SDS011;11585;51.450;-0.240;2023-06-22T00:26:49;10.75;;;5.85;;
22837;SDS011;11585;51.450;-0.240;2023-06-22T00:29:15;11.30;;;5.88;;
22837;SDS011;11585;51.450;-0.240;2023-06-22T00:31:41;9.38;;;5.57;;
22837;SDS011;11585;51.450;-0.240;2023-06-22T00:34:09;9.48;;;5.85;;
22837;SDS011;11585;51.450;-0.240;2023-06-22T00:36:35;14.98;;;6.15;;
22837;SDS011;11585;51.450;-0.240;2023-06-22T00:39:01;12.02;;;5.63;;
22837;SDS011;11585;51.450;-0.240;2023-06-22T00:41:27;10.68;;;6.28;;
22837;SDS011;11585;51.450;-0.240;2023-06-22T00:46:39;12.18;;;5.90;;
22837;SDS011;11585;51.450;-0.240;2023-06-22T00:49:04;11.95;;;5.95;;
22837;SDS011;11585;51.450;-0.240;2023-06-22T00:51:30;16.33;;;6.13;;
22837;SDS011;11585;51.450;-0.240;2023-06-22T00:53:56;11.73;;;6.55;;
22837;SDS011;11585;51.450;-0.240;2023-06-22T00:56:23;10.30;;;5.72;;
22837;SDS011;11585;51.450;-0.240;2023-06-22T00:58:49;12.63;;;5.88;;
22837;SDS011;11585;51.450;-0.240;2023-06-22T01:01:17;10.95;;;6.03;;
22837;SDS011;11585;51.450;-0.240;2023-06-22T01:03:49;9.13;;;5.85;;
22837;SDS011;11585;51.450;-0.240;2023-06-22T01:06:16;12.15;;;6.63;;
22837;SDS011;11585;51.450;-0.240;2023-06-22T01:08:51;13.85;;;6.78;;
22837;SDS011;11585;51.450;-0.240;2023-06-22T01:11:26;13.88;;;6.47;;
22837;SDS011;11585;51.450;-0.240;2023-06-22T01:16:58;11.93;;;6.75;;
22837;SDS011;11585;51.450;-0.240;2023-06-22T01:19:45;11.82;;;6.18;;
22837;SDS011;11585;51.450;-0.240;2023-06-22T01:22:16;9.38;;;5.65;;
22837;SDS011;11585;51.450;-0.240;2023-06-22T01:30:14;10.02;;;6.60;;
22837;SDS011;11585;51.450;-0.240;2023-06-22T01:32:43;12.35;;;6.13;;
22837;SDS011;11585;51.450;-0.240;2023-06-22T01:35:09;14.25;;;6.03;;
22837;SDS011;11585;51.450;-0.240;2023-06-22T01:37:36;11.77;;;5.78;;
22837;SDS011;11585;51.450;-0.240;2023-06-22T01:40:03;10.77;;;5.85;;
22837;SDS011;11585;51.450;-0.240;2023-06-22T01:45:37;12.00;;;5.75;;
22837;SDS011;11585;51.450;-0.240;2023-06-22T01:48:05;10.10;;;5.68;;
22837;SDS011;11585;51.450;-0.240;2023-06-22T01:50:31;11.25;;;5.90;;
22837;SDS011;11585;51.450;-0.240;2023-06-22T01:56:05;9.63;;;6.18;;
22837;SDS011;11585;51.450;-0.240;2023-06-22T02:01:48;11.07;;;6.30;;
22837;SDS011;11585;51.450;-0.240;2023-06-22T02:04:34;10.73;;;6.55;;
22837;SDS011;11585;51.450;-0.240;2023-06-22T02:07:17;10.25;;;6.80;;
22837;SDS011;11585;51.450;-0.240;2023-06-22T02:09:45;11.73;;;6.40;;
22837;SDS011;11585;51.450;-0.240;2023-06-22T02:14:43;11.50;;;6.30;;
22837;SDS011;11585;51.450;-0.240;2023-06-22T02:17:11;14.77;;;6.38;;
22837;SDS011;11585;51.450;-0.240;2023-06-22T02:19:37;14.40;;;6.97;;
22837;SDS011;11585;51.450;-0.240;2023-06-22T02:22:06;11.98;;;6.68;;
22837;SDS011;11585;51.450;-0.240;2023-06-22T02:24:31;12.48;;;6.40;;
22837;SDS011;11585;51.450;-0.240;2023-06-22T02:26:58;12.10;;;5.93;;
22837;SDS011;11585;51.450;-0.240;2023-06-22T02:29:24;9.30;;;6.25;;
22837;SDS011;11585;51.450;-0.240;2023-06-22T02:31:51;13.63;;;6.57;;
22837;SDS011;11585;51.450;-0.240;2023-06-22T02:34:18;10.73;;;6.43;;
22837;SDS011;11585;51.450;-0.240;2023-06-22T02:36:47;11.50;;;6.15;;
22837;SDS011;11585;51.450;-0.240;2023-06-22T02:39:20;8.73;;;5.50;;
22837;SDS011;11585;51.450;-0.240;2023-06-22T02:41:47;11.68;;;5.82;;
22837;SDS011;11585;51.450;-0.240;2023-06-22T02:44:13;9.93;;;6.32;;
22837;SDS011;11585;51.450;-0.240;2023-06-22T02:46:39;10.80;;;6.00;;
22837;SDS011;11585;51.450;-0.240;2023-06-22T02:49:05;11.02;;;5.82;;
22837;SDS011;11585;51.450;-0.240;2023-06-22T02:51:32;11.52;;;6.32;;
22837;SDS011;11585;51.450;-0.240;2023-06-22T02:54:01;9.45;;;6.28;;
22837;SDS011;11585;51.450;-0.240;2023-06-22T02:56:28;10.13;;;5.82;;
22837;SDS011;11585;51.450;-0.240;2023-06-22T02:58:55;12.90;;;6.72;;
22837;SDS011;11585;51.450;-0.240;2023-06-22T03:01:25;15.50;;;6.80;;
22837;SDS011;11585;51.450;-0.240;2023-06-22T03:06:23;11.65;;;6.47;;
22837;SDS011;11585;51.450;-0.240;2023-06-22T03:08:54;7.72;;;5.80;;
22837;SDS011;11585;51.450;-0.240;2023-06-22T03:11:24;11.55;;;6.55;;
22837;SDS011;11585;51.450;-0.240;2023-06-22T03:17:12;8.63;;;6.13;;
22837;SDS011;11585;51.450;-0.240;2023-06-22T03:19:37;12.60;;;6.45;;
22837;SDS011;11585;51.450;-0.240;2023-06-22T03:24:33;12.55;;;7.28;;
22837;SDS011;11585;51.450;-0.240;2023-06-22T03:26:59;11.02;;;6.68;;
22837;SDS011;11585;51.450;-0.240;2023-06-22T03:29:25;10.75;;;6.68;;
22837;SDS011;11585;51.450;-0.240;2023-06-22T03:31:52;14.95;;;6.82;;
22837;SDS011;11585;51.450;-0.240;2023-06-22T03:34:17;10.23;;;6.32;;
22837;SDS011;11585;51.450;-0.240;2023-06-22T03:36:44;9.50;;;6.57;;
22837;SDS011;11585;51.450;-0.240;2023-06-22T03:39:10;11.15;;;6.55;;
22837;SDS011;11585;51.450;-0.240;2023-06-22T03:41:35;9.25;;;6.28;;
22837;SDS011;11585;51.450;-0.240;2023-06-22T03:47:23;12.93;;;7.30;;
22837;SDS011;11585;51.450;-0.240;2023-06-22T03:49:49;13.18;;;6.93;;
22837;SDS011;11585;51.450;-0.240;2023-06-22T03:58:58;13.55;;;6.72;;
22837;SDS011;11585;51.450;-0.240;2023-06-22T04:01:24;12.88;;;7.10;;
22837;SDS011;11585;51.450;-0.240;2023-06-22T04:06:20;12.27;;;7.70;;
22837;SDS011;11585;51.450;-0.240;2023-06-22T04:08:45;17.08;;;8.02;;
22837;SDS011;11585;51.450;-0.240;2023-06-22T04:11:16;16.85;;;8.20;;
22837;SDS011;11585;51.450;-0.240;2023-06-22T04:13:43;14.07;;;7.78;;
22837;SDS011;11585;51.450;-0.240;2023-06-22T04:16:09;15.25;;;8.20;;
22837;SDS011;11585;51.450;-0.240;2023-06-22T04:18:35;13.50;;;7.63;;
22837;SDS011;11585;51.450;-0.240;2023-06-22T04:21:01;12.50;;;7.47;;
22837;SDS011;11585;51.450;-0.240;2023-06-22T04:26:12;16.65;;;7.47;;
22837;SDS011;11585;51.450;-0.240;2023-06-22T04:28:39;9.68;;;6.90;;
22837;SDS011;11585;51.450;-0.240;2023-06-22T04:31:05;11.88;;;7.40;;
22837;SDS011;11585;51.450;-0.240;2023-06-22T04:36:52;14.07;;;8.35;;
22837;SDS011;11585;51.450;-0.240;2023-06-22T04:39:18;15.60;;;8.10;;
22837;SDS011;11585;51.450;-0.240;2023-06-22T04:41:44;12.23;;;7.65;;
22837;SDS011;11585;51.450;-0.240;2023-06-22T04:44:14;14.18;;;7.85;;
22837;SDS011;11585;51.450;-0.240;2023-06-22T04:46:52;11.65;;;7.63;;
22837;SDS011;11585;51.450;-0.240;2023-06-22T04:49:20;14.75;;;7.72;;
22837;SDS011;11585;51.450;-0.240;2023-06-22T04:51:47;15.63;;;7.72;;
22837;SDS011;11585;51.450;-0.240;2023-06-22T04:54:13;16.33;;;8.75;;
22837;SDS011;11585;51.450;-0.240;2023-06-22T04:56:38;13.93;;;7.70;;
22837;SDS011;11585;51.450;-0.240;2023-06-22T04:59:05;14.30;;;7.78;;
22837;SDS011;11585;51.450;-0.240;2023-06-22T05:01:31;16.30;;;7.38;;
22837;SDS011;11585;51.450;-0.240;2023-06-22T05:03:57;14.32;;;7.82;;
22837;SDS011;11585;51.450;-0.240;2023-06-22T05:06:26;15.40;;;8.18;;
22837;SDS011;11585;51.450;-0.240;2023-06-22T05:08:55;14.25;;;8.05;;
22837;SDS011;11585;51.450;-0.240;2023-06-22T05:11:25;12.68;;;7.35;;
22837;SDS011;11585;51.450;-0.240;2023-06-22T05:17:13;16.77;;;8.25;;
22837;SDS011;11585;51.450;-0.240;2023-06-22T05:19:39;19.23;;;8.48;;
22837;SDS011;11585;51.450;-0.240;2023-06-22T05:22:11;14.55;;;8.73;;
22837;SDS011;11585;51.450;-0.240;2023-06-22T05:24:37;17.80;;;8.57;;
22837;SDS011;11585;51.450;-0.240;2023-06-22T05:27:02;15.80;;;7.78;;
22837;SDS011;11585;51.450;-0.240;2023-06-22T05:29:28;23.40;;;8.63;;
22837;SDS011;11585;51.450;-0.240;2023-06-22T05:34:38;16.33;;;9.00;;
22837;SDS011;11585;51.450;-0.240;2023-06-22T05:37:05;12.43;;;8.20;;
22837;SDS011;11585;51.450;-0.240;2023-06-22T05:39:31;13.52;;;7.93;;
22837;SDS011;11585;51.450;-0.240;2023-06-22T05:45:19;22.27;;;9.23;;
22837;SDS011;11585;51.450;-0.240;2023-06-22T05:47:44;13.95;;;8.63;;
22837;SDS011;11585;51.450;-0.240;2023-06-22T05:50:10;16.48;;;7.95;;
22837;SDS011;11585;51.450;-0.240;2023-06-22T05:52:37;16.42;;;8.88;;
22837;SDS011;11585;51.450;-0.240;2023-06-22T05:55:03;21.63;;;8.93;;
22837;SDS011;11585;51.450;-0.240;2023-06-22T05:57:29;16.60;;;9.02;;
22837;SDS011;11585;51.450;-0.240;2023-06-22T05:59:54;19.20;;;9.80;;
22837;SDS011;11585;51.450;-0.240;2023-06-22T06:09:04;15.10;;;8.60;;
22837;SDS011;11585;51.450;-0.240;2023-06-22T06:11:30;21.60;;;9.70;;
22837;SDS011;11585;51.450;-0.240;2023-06-22T06:16:42;15.07;;;9.13;;
22837;SDS011;11585;51.450;-0.240;2023-06-22T06:19:07;19.45;;;9.40;;
22837;SDS011;11585;51.450;-0.240;2023-06-22T06:21:33;19.35;;;10.13;;
22837;SDS011;11585;51.450;-0.240;2023-06-22T06:26:43;20.70;;;10.02;;
22837;SDS011;11585;51.450;-0.240;2023-06-22T06:29:09;18.20;;;9.25;;
22837;SDS011;11585;51.450;-0.240;2023-06-22T06:31:34;16.83;;;9.98;;
22837;SDS011;11585;51.450;-0.240;2023-06-22T06:34:01;22.27;;;10.75;;
22837;SDS011;11585;51.450;-0.240;2023-06-22T06:36:27;19.35;;;9.80;;
22837;SDS011;11585;51.450;-0.240;2023-06-22T06:38:52;16.45;;;9.15;;
22837;SDS011;11585;51.450;-0.240;2023-06-22T06:41:18;20.80;;;10.70;;
22837;SDS011;11585;51.450;-0.240;2023-06-22T06:43:46;19.80;;;10.57;;
22837;SDS011;11585;51.450;-0.240;2023-06-22T06:46:12;21.65;;;10.32;;
22837;SDS011;11585;51.450;-0.240;2023-06-22T06:48:38;19.17;;;11.25;;
22837;SDS011;11585;51.450;-0.240;2023-06-22T06:51:04;17.65;;;10.30;;
22837;SDS011;11585;51.450;-0.240;2023-06-22T06:53:31;25.13;;;12.90;;
22837;SDS011;11585;51.450;-0.240;2023-06-22T06:55:57;19.67;;;10.18;;
22837;SDS011;11585;51.450;-0.240;2023-06-22T06:58:22;17.92;;;10.23;;
22837;SDS011;11585;51.450;-0.240;2023-06-22T07:00:48;17.25;;;10.27;;
22837;SDS011;11585;51.450;-0.240;2023-06-22T07:03:15;18.02;;;9.90;;
22837;SDS011;11585;51.450;-0.240;2023-06-22T07:05:41;18.58;;;10.00;;
22837;SDS011;11585;51.450;-0.240;2023-06-22T07:08:06;20.23;;;10.25;;
22837;SDS011;11585;51.450;-0.240;2023-06-22T07:10:32;23.45;;;10.57;;
22837;SDS011;11585;51.450;-0.240;2023-06-22T07:12:58;20.20;;;11.00;;
22837;SDS011;11585;51.450;-0.240;2023-06-22T07:15:23;19.10;;;9.32;;
22837;SDS011;11585;51.450;-0.240;2023-06-22T07:17:50;19.80;;;11.60;;
22837;SDS011;11585;51.450;-0.240;2023-06-22T07:20:15;16.10;;;9.70;;
22837;SDS011;11585;51.450;-0.240;2023-06-22T07:25:26;22.25;;;10.68;;
22837;SDS011;11585;51.450;-0.240;2023-06-22T07:28:05;27.80;;;11.32;;
22837;SDS011;11585;51.450;-0.240;2023-06-22T07:30:32;21.20;;;10.75;;
22837;SDS011;11585;51.450;-0.240;2023-06-22T07:35:44;19.77;;;10.32;;
22837;SDS011;11585;51.450;-0.240;2023-06-22T07:38:12;18.27;;;9.82;;
22837;SDS011;11585;51.450;-0.240;2023-06-22T07:40:37;20.77;;;10.80;;
22837;SDS011;11585;51.450;-0.240;2023-06-22T07:43:05;15.57;;;10.02;;
22837;SDS011;11585;51.450;-0.240;2023-06-22T07:45:31;17.85;;;9.82;;
22837;SDS011;11585;51.450;-0.240;2023-06-22T07:47:59;18.17;;;9.75;;
22837;SDS011;11585;51.450;-0.240;2023-06-22T07:50:25;18.90;;;9.43;;
22837;SDS011;11585;51.450;-0.240;2023-06-22T07:52:52;20.50;;;9.05;;
22837;SDS011;11585;51.450;-0.240;2023-06-22T07:55:18;16.23;;;9.48;;
22837;SDS011;11585;51.450;-0.240;2023-06-22T07:57:44;16.75;;;8.65;;
22837;SDS011;11585;51.450;-0.240;2023-06-22T08:00:11;20.08;;;9.55;;
22837;SDS011;11585;51.450;-0.240;2023-06-22T08:02:42;15.95;;;9.70;;
22837;SDS011;11585;51.450;-0.240;2023-06-22T08:05:09;23.65;;;10.60;;
22837;SDS011;11585;51.450;-0.240;2023-06-22T08:07:36;18.27;;;9.65;;
22837;SDS011;11585;51.450;-0.240;2023-06-22T08:10:03;24.50;;;10.23;;
22837;SDS011;11585;51.450;-0.240;2023-06-22T08:12:30;21.33;;;9.10;;
22837;SDS011;11585;51.450;-0.240;2023-06-22T08:14:56;19.38;;;8.10;;
22837;SDS011;11585;51.450;-0.240;2023-06-22T08:17:22;19.35;;;8.32;;
22837;SDS011;11585;51.450;-0.240;2023-06-22T08:19:49;19.10;;;8.40;;
22837;SDS011;11585;51.450;-0.240;2023-06-22T08:25:18;14.52;;;7.85;;
22837;SDS011;11585;51.450;-0.240;2023-06-22T08:27:44;17.17;;;8.50;;
22837;SDS011;11585;51.450;-0.240;2023-06-22T08:30:12;15.48;;;8.50;;
22837;SDS011;11585;51.450;-0.240;2023-06-22T08:32:37;21.40;;;9.00;;
22837;SDS011;11585;51.450;-0.240;2023-06-22T08:35:03;14.68;;;8.55;;
22837;SDS011;11585;51.450;-0.240;2023-06-22T08:37:30;25.88;;;12.05;;
22837;SDS011;11585;51.450;-0.240;2023-06-22T08:39:58;17.55;;;8.75;;
22837;SDS011;11585;51.450;-0.240;2023-06-22T08:42:24;15.07;;;8.30;;
22837;SDS011;11585;51.450;-0.240;2023-06-22T08:44:50;14.82;;;7.82;;
22837;SDS011;11585;51.450;-0.240;2023-06-22T08:47:16;16.67;;;7.95;;
22837;SDS011;11585;51.450;-0.240;2023-06-22T08:49:42;13.88;;;7.80;;
22837;SDS011;11585;51.450;-0.240;2023-06-22T08:52:07;17.02;;;8.32;;
22837;SDS011;11585;51.450;-0.240;2023-06-22T08:54:33;12.55;;;7.45;;
22837;SDS011;11585;51.450;-0.240;2023-06-22T08:57:00;13.85;;;7.70;;
22837;SDS011;11585;51.450;-0.240;2023-06-22T08:59:27;17.13;;;8.10;;
22837;SDS011;11585;51.450;-0.240;2023-06-22T09:01:52;16.23;;;8.40;;
22837;SDS011;11585;51.450;-0.240;2023-06-22T09:04:18;13.82;;;7.43;;
22837;SDS011;11585;51.450;-0.240;2023-06-22T09:06:43;15.23;;;8.10;;
22837;SDS011;11585;51.450;-0.240;2023-06-22T09:09:12;15.77;;;8.27;;
22837;SDS011;11585;51.450;-0.240;2023-06-22T09:11:39;11.18;;;6.63;;
22837;SDS011;11585;51.450;-0.240;2023-06-22T09:14:04;13.23;;;6.63;;
22837;SDS011;11585;51.450;-0.240;2023-06-22T09:16:30;17.98;;;7.00;;
22837;SDS011;11585;51.450;-0.240;2023-06-22T09:18:56;13.98;;;7.80;;
22837;SDS011;11585;51.450;-0.240;2023-06-22T09:21:21;10.88;;;7.00;;
22837;SDS011;11585;51.450;-0.240;2023-06-22T09:26:51;12.10;;;6.68;;
22837;SDS011;11585;51.450;-0.240;2023-06-22T09:29:16;14.93;;;6.45;;
22837;SDS011;11585;51.450;-0.240;2023-06-22T09:31:42;9.93;;;5.95;;
22837;SDS011;11585;51.450;-0.240;2023-06-22T09:34:10;12.25;;;6.68;;
22837;SDS011;11585;51.450;-0.240;2023-06-22T09:36:36;10.70;;;6.72;;
22837;SDS011;11585;51.450;-0.240;2023-06-22T09:39:01;15.55;;;6.75;;
22837;SDS011;11585;51.450;-0.240;2023-06-22T09:41:31;14.25;;;6.72;;
22837;SDS011;11585;51.450;-0.240;2023-06-22T09:43:56;13.82;;;7.15;;
22837;SDS011;11585;51.450;-0.240;2023-06-22T09:46:22;10.90;;;6.40;;
22837;SDS011;11585;51.450;-0.240;2023-06-22T09:48:50;9.25;;;5.95;;
22837;SDS011;11585;51.450;-0.240;2023-06-22T09:51:16;12.93;;;6.70;;
22837;SDS011;11585;51.450;-0.240;2023-06-22T09:53:41;9.63;;;6.43;;
22837;SDS011;11585;51.450;-0.240;2023-06-22T09:56:07;11.85;;;6.10;;
22837;SDS011;11585;51.450;-0.240;2023-06-22T09:58:39;21.77;;;9.40;;
22837;SDS011;11585;51.450;-0.240;2023-06-22T10:01:06;13.98;;;7.35;;
22837;SDS011;11585;51.450;-0.240;2023-06-22T10:06:21;11.77;;;6.60;;
22837;SDS011;11585;51.450;-0.240;2023-06-22T10:08:47;13.77;;;6.97;;
22837;SDS011;11585;51.450;-0.240;2023-06-22T10:11:15;16.63;;;7.45;;
22837;SDS011;11585;51.450;-0.240;2023-06-22T10:13:41;12.77;;;7.63;;
22837;SDS011;11585;51.450;-0.240;2023-06-22T10:16:07;12.73;;;7.30;;
22837;SDS011;11585;51.450;-0.240;2023-06-22T10:18:33;14.32;;;6.13;;
22837;SDS011;11585;51.450;-0.240;2023-06-22T10:20:58;11.70;;;6.78;;
22837;SDS011;11585;51.450;-0.240;2023-06-22T10:23:26;14.07;;;7.18;;
22837;SDS011;11585;51.450;-0.240;2023-06-22T10:25:52;16.85;;;7.57;;
22837;SDS011;11585;51.450;-0.240;2023-06-22T10:28:18;12.15;;;6.95;;
22837;SDS011;11585;51.450;-0.240;2023-06-22T10:30:43;16.77;;;7.30;;
22837;SDS011;11585;51.450;-0.240;2023-06-22T10:33:09;12.57;;;6.00;;
22837;SDS011;11585;51.450;-0.240;2023-06-22T10:35:36;15.55;;;7.63;;
22837;SDS011;11585;51.450;-0.240;2023-06-22T10:38:04;10.30;;;6.32;;
22837;SDS011;11585;51.450;-0.240;2023-06-22T10:40:30;15.15;;;7.25;;
22837;SDS011;11585;51.450;-0.240;2023-06-22T10:42:57;17.63;;;6.63;;
22837;SDS011;11585;51.450;-0.240;2023-06-22T10:45:23;8.98;;;5.78;;
22837;SDS011;11585;51.450;-0.240;2023-06-22T10:47:49;13.00;;;6.15;;
22837;SDS011;11585;51.450;-0.240;2023-06-22T10:50:14;11.13;;;5.82;;
22837;SDS011;11585;51.450;-0.240;2023-06-22T10:52:42;19.58;;;7.78;;
22837;SDS011;11585;51.450;-0.240;2023-06-22T10:55:08;16.65;;;8.02;;
22837;SDS011;11585;51.450;-0.240;2023-06-22T10:57:35;15.95;;;7.20;;
22837;SDS011;11585;51.450;-0.240;2023-06-22T11:00:01;15.35;;;7.13;;
22837;SDS011;11585;51.450;-0.240;2023-06-22T11:02:30;16.50;;;6.40;;
22837;SDS011;11585;51.450;-0.240;2023-06-22T11:04:56;9.98;;;5.75;;
22837;SDS011;11585;51.450;-0.240;2023-06-22T11:07:25;14.70;;;6.85;;
22837;SDS011;11585;51.450;-0.240;2023-06-22T11:09:53;13.75;;;7.22;;
22837;SDS011;11585;51.450;-0.240;2023-06-22T11:12:19;15.90;;;6.72;;
22837;SDS011;11585;51.450;-0.240;2023-06-22T11:14:45;15.25;;;7.22;;
22837;SDS011;11585;51.450;-0.240;2023-06-22T11:17:10;9.52;;;5.95;;
22837;SDS011;11585;51.450;-0.240;2023-06-22T11:19:36;17.13;;;6.88;;
22837;SDS011;11585;51.450;-0.240;2023-06-22T11:22:04;10.50;;;5.85;;
22837;SDS011;11585;51.450;-0.240;2023-06-22T11:24:29;14.90;;;5.72;;
22837;SDS011;11585;51.450;-0.240;2023-06-22T11:26:55;9.60;;;5.40;;
22837;SDS011;11585;51.450;-0.240;2023-06-22T11:29:20;9.35;;;4.97;;
22837;SDS011;11585;51.450;-0.240;2023-06-22T11:31:46;9.68;;;5.00;;
22837;SDS011;11585;51.450;-0.240;2023-06-22T11:34:12;12.32;;;5.55;;
22837;SDS011;11585;51.450;-0.240;2023-06-22T11:36:37;9.32;;;5.30;;
22837;SDS011;11585;51.450;-0.240;2023-06-22T11:39:03;11.95;;;5.60;;
22837;SDS011;11585;51.450;-0.240;2023-06-22T11:41:30;9.52;;;5.13;;
22837;SDS011;11585;51.450;-0.240;2023-06-22T11:43:55;8.10;;;5.00;;
22837;SDS011;11585;51.450;-0.240;2023-06-22T11:46:21;9.25;;;4.75;;
22837;SDS011;11585;51.450;-0.240;2023-06-22T11:48:46;18.52;;;7.18;;
22837;SDS011;11585;51.450;-0.240;2023-06-22T11:51:12;12.02;;;5.75;;
22837;SDS011;11585;51.450;-0.240;2023-06-22T11:53:40;8.18;;;5.65;;
22837;SDS011;11585;51.450;-0.240;2023-06-22T11:56:05;12.60;;;5.35;;
22837;SDS011;11585;51.450;-0.240;2023-06-22T11:58:31;8.18;;;5.38;;
22837;SDS011;11585;51.450;-0.240;2023-06-22T12:00:56;10.20;;;5.57;;
22837;SDS011;11585;51.450;-0.240;2023-06-22T12:03:22;6.65;;;4.97;;
22837;SDS011;11585;51.450;-0.240;2023-06-22T12:05:48;8.52;;;4.75;;
22837;SDS011;11585;51.450;-0.240;2023-06-22T12:08:14;9.57;;;4.97;;
22837;SDS011;11585;51.450;-0.240;2023-06-22T12:10:40;9.13;;;4.68;;
22837;SDS011;11585;51.450;-0.240;2023-06-22T12:13:06;12.98;;;7.90;;
22837;SDS011;11585;51.450;-0.240;2023-06-22T12:15:32;12.63;;;6.63;;
22837;SDS011;11585;51.450;-0.240;2023-06-22T12:17:58;12.57;;;5.10;;
22837;SDS011;11585;51.450;-0.240;2023-06-22T12:20:23;8.73;;;4.40;;
22837;SDS011;11585;51.450;-0.240;2023-06-22T12:22:49;10.15;;;4.88;;
22837;SDS011;11585;51.450;-0.240;2023-06-22T12:25:16;9.43;;;4.32;;
22837;SDS011;11585;51.450;-0.240;2023-06-22T12:27:42;14.45;;;4.93;;
22837;SDS011;11585;51.450;-0.240;2023-06-22T12:30:08;9.43;;;5.47;;
22837;SDS011;11585;51.450;-0.240;2023-06-22T12:32:34;8.95;;;4.40;;
22837;SDS011;11585;51.450;-0.240;2023-06-22T12:34:59;11.93;;;5.07;;
22837;SDS011;11585;51.450;-0.240;2023-06-22T12:37:25;7.65;;;4.30;;
22837;SDS011;11585;51.450;-0.240;2023-06-22T12:39:51;8.30;;;4.82;;
22837;SDS011;11585;51.450;-0.240;2023-06-22T12:42:16;12.88;;;4.88;;
22837;SDS011;11585;51.450;-0.240;2023-06-22T12:44:42;11.95;;;4.90;;
22837;SDS011;11585;51.450;-0.240;2023-06-22T12:47:08;7.57;;;4.25;;
22837;SDS011;11585;51.450;-0.240;2023-06-22T12:49:34;11.95;;;5.15;;
22837;SDS011;11585;51.450;-0.240;2023-06-22T12:52:01;7.80;;;3.50;;
22837;SDS011;11585;51.450;-0.240;2023-06-22T12:54:28;10.65;;;3.75;;
22837;SDS011;11585;51.450;-0.240;2023-06-22T12:56:54;6.45;;;4.13;;
22837;SDS011;11585;51.450;-0.240;2023-06-22T12:59:21;7.50;;;4.05;;
22837;SDS011;11585;51.450;-0.240;2023-06-22T13:01:46;8.07;;;4.07;;
22837;SDS011;11585;51.450;-0.240;2023-06-22T13:04:12;8.40;;;3.42;;
22837;SDS011;11585;51.450;-0.240;2023-06-22T13:06:40;9.10;;;5.13;;
22837;SDS011;11585;51.450;-0.240;2023-06-22T13:09:06;8.00;;;3.50;;
22837;SDS011;11585;51.450;-0.240;2023-06-22T13:11:32;8.57;;;3.90;;
22837;SDS011;11585;51.450;-0.240;2023-06-22T13:13:59;10.25;;;3.53;;
22837;SDS011;11585;51.450;-0.240;2023-06-22T13:16:25;6.90;;;3.35;;
22837;SDS011;11585;51.450;-0.240;2023-06-22T13:18:50;5.20;;;3.03;;
22837;SDS011;11585;51.450;-0.240;2023-06-22T13:21:16;6.40;;;3.33;;
22837;SDS011;11585;51.450;-0.240;2023-06-22T13:23:41;4.97;;;3.25;;
22837;SDS011;11585;51.450;-0.240;2023-06-22T13:26:07;7.00;;;3.80;;
22837;SDS011;11585;51.450;-0.240;2023-06-22T13:28:33;8.52;;;4.03;;
22837;SDS011;11585;51.450;-0.240;2023-06-22T13:30:58;6.47;;;4.10;;
22837;SDS011;11585;51.450;-0.240;2023-06-22T13:36:10;7.22;;;3.50;;
22837;SDS011;11585;51.450;-0.240;2023-06-22T13:38:37;7.15;;;3.60;;
22837;SDS011;11585;51.450;-0.240;2023-06-22T13:41:03;8.70;;;3.78;;
22837;SDS011;11585;51.450;-0.240;2023-06-22T13:46:14;6.43;;;3.35;;
22837;SDS011;11585;51.450;-0.240;2023-06-22T13:48:39;7.30;;;3.22;;
22837;SDS011;11585;51.450;-0.240;2023-06-22T13:51:05;7.15;;;3.60;;
22837;SDS011;11585;51.450;-0.240;2023-06-22T13:53:31;5.60;;;3.70;;
22837;SDS011;11585;51.450;-0.240;2023-06-22T13:55:57;12.80;;;5.15;;
22837;SDS011;11585;51.450;-0.240;2023-06-22T13:58:22;7.20;;;3.70;;
22837;SDS011;11585;51.450;-0.240;2023-06-22T14:00:48;7.10;;;3.33;;
22837;SDS011;11585;51.450;-0.240;2023-06-22T14:03:14;8.30;;;3.58;;
22837;SDS011;11585;51.450;-0.240;2023-06-22T14:05:41;7.40;;;3.55;;
22837;SDS011;11585;51.450;-0.240;2023-06-22T14:08:07;5.07;;;3.15;;
22837;SDS011;11585;51.450;-0.240;2023-06-22T14:10:34;12.95;;;4.80;;
22837;SDS011;11585;51.450;-0.240;2023-06-22T14:15:44;8.38;;;2.90;;
22837;SDS011;11585;51.450;-0.240;2023-06-22T14:18:09;7.18;;;3.88;;
22837;SDS011;11585;51.450;-0.240;2023-06-22T14:20:35;8.73;;;4.00;;
22837;SDS011;11585;51.450;-0.240;2023-06-22T14:23:02;10.25;;;4.32;;
22837;SDS011;11585;51.450;-0.240;2023-06-22T14:25:27;10.07;;;4.30;;
22837;SDS011;11585;51.450;-0.240;2023-06-22T14:27:53;9.43;;;4.53;;
22837;SDS011;11585;51.450;-0.240;2023-06-22T14:30:19;8.90;;;3.95;;
22837;SDS011;11585;51.450;-0.240;2023-06-22T14:32:44;10.05;;;4.63;;
22837;SDS011;11585;51.450;-0.240;2023-06-22T14:35:10;12.18;;;5.43;;
22837;SDS011;11585;51.450;-0.240;2023-06-22T14:37:36;8.80;;;4.20;;
22837;SDS011;11585;51.450;-0.240;2023-06-22T14:40:01;5.72;;;3.20;;
22837;SDS011;11585;51.450;-0.240;2023-06-22T14:44:57;3.58;;;2.72;;
22837;SDS011;11585;51.450;-0.240;2023-06-22T14:47:22;13.90;;;7.68;;
22837;SDS011;11585;51.450;-0.240;2023-06-22T14:49:48;6.03;;;3.60;;
22837;SDS011;11585;51.450;-0.240;2023-06-22T14:52:13;5.45;;;3.70;;
22837;SDS011;11585;51.450;-0.240;2023-06-22T14:54:39;6.53;;;4.20;;
22837;SDS011;11585;51.450;-0.240;2023-06-22T14:57:04;6.72;;;3.33;;
22837;SDS011;11585;51.450;-0.240;2023-06-22T14:59:30;9.57;;;5.20;;
22837;SDS011;11585;51.450;-0.240;2023-06-22T15:01:57;4.35;;;3.38;;
22837;SDS011;11585;51.450;-0.240;2023-06-22T15:04:22;4.30;;;2.67;;
22837;SDS011;11585;51.450;-0.240;2023-06-22T15:06:48;8.32;;;4.28;;
22837;SDS011;11585;51.450;-0.240;2023-06-22T15:09:14;7.63;;;3.88;;
22837;SDS011;11585;51.450;-0.240;2023-06-22T15:11:39;8.68;;;4.15;;
22837;SDS011;11585;51.450;-0.240;2023-06-22T15:14:07;7.20;;;3.95;;
22837;SDS011;11585;51.450;-0.240;2023-06-22T15:16:32;4.75;;;3.05;;
22837;SDS011;11585;51.450;-0.240;2023-06-22T15:18:58;5.68;;;3.40;;
22837;SDS011;11585;51.450;-0.240;2023-06-22T15:21:24;9.57;;;3.10;;
22837;SDS011;11585;51.450;-0.240;2023-06-22T15:23:50;6.43;;;3.60;;
22837;SDS011;11585;51.450;-0.240;2023-06-22T15:26:15;6.90;;;3.42;;
22837;SDS011;11585;51.450;-0.240;2023-06-22T15:28:42;10.55;;;3.90;;
22837;SDS011;11585;51.450;-0.240;2023-06-22T15:31:08;22.25;;;6.30;;
22837;SDS011;11585;51.450;-0.240;2023-06-22T15:36:04;8.05;;;4.10;;
22837;SDS011;11585;51.450;-0.240;2023-06-22T15:38:32;17.02;;;5.55;;
22837;SDS011;11585;51.450;-0.240;2023-06-22T15:40:58;6.88;;;3.47;;
22837;SDS011;11585;51.450;-0.240;2023-06-22T15:43:24;6.93;;;3.53;;
22837;SDS011;11585;51.450;-0.240;2023-06-22T15:45:50;9.77;;;4.15;;
22837;SDS011;11585;51.450;-0.240;2023-06-22T15:48:18;15.60;;;5.88;;
22837;SDS011;11585;51.450;-0.240;2023-06-22T15:50:44;13.00;;;5.53;;
22837;SDS011;11585;51.450;-0.240;2023-06-22T15:53:09;7.07;;;3.38;;
22837;SDS011;11585;51.450;-0.240;2023-06-22T15:55:35;7.43;;;3.55;;
22837;SDS011;11585;51.450;-0.240;2023-06-22T15:58:01;7.07;;;4.07;;
22837;SDS011;11585;51.450;-0.240;2023-06-22T16:00:26;9.68;;;4.22;;